createdAt,value
2023-10-06T00:04:14.566Z,8.93
2023-10-06T00:09:29.531Z,8.93
2023-10-06T00:14:44.720Z,8.96
2023-10-06T00:19:53.575Z,8.94
2023-10-06T00:25:01.137Z,8.92
2023-10-06T00:30:13.179Z,8.91
2023-10-06T00:35:25.177Z,8.86
2023-10-06T00:40:36.998Z,8.77
2023-10-06T00:45:42.581Z,8.68
2023-10-06T00:50:50.078Z,8.57
2023-10-06T00:55:55.870Z,8.46
2023-10-06T01:01:01.550Z,8.34
2023-10-06T01:06:08.842Z,8.20
2023-10-06T01:11:18.069Z,8.09
2023-10-06T01:16:27.730Z,7.99
2023-10-06T01:21:34.141Z,7.91
2023-10-06T01:26:42.631Z,7.92
2023-10-06T01:31:51.410Z,7.99
2023-10-06T01:36:57.461Z,8.10
2023-10-06T01:42:05.846Z,8.26
2023-10-06T01:47:13.238Z,8.37
2023-10-06T01:52:20.822Z,8.46
2023-10-06T01:57:27.421Z,8.59
2023-10-06T02:02:32.985Z,8.75
2023-10-06T02:07:39.663Z,8.90
2023-10-06T02:12:46.368Z,9.01
2023-10-06T02:17:52.027Z,9.09
2023-10-06T02:23:00.088Z,9.14
2023-10-06T02:28:07.294Z,9.17
2023-10-06T02:33:14.391Z,9.21
2023-10-06T02:38:21.916Z,9.23
2023-10-06T02:43:29.675Z,9.26
2023-10-06T02:48:35.285Z,9.30
2023-10-06T02:53:40.861Z,9.35
2023-10-06T02:58:47.864Z,9.42
2023-10-06T03:04:07.366Z,9.51
2023-10-06T03:09:12.993Z,9.64
2023-10-06T03:14:25.452Z,9.74
2023-10-06T03:19:34.216Z,9.83
2023-10-06T03:24:46.444Z,9.92
2023-10-06T03:29:55.041Z,10.06
2023-10-06T03:35:10.310Z,10.18
2023-10-06T03:40:23.852Z,10.22
2023-10-06T03:45:32.727Z,10.19
2023-10-06T03:50:43.532Z,10.16
2023-10-06T03:55:50.507Z,10.14
2023-10-06T04:00:56.626Z,10.11
2023-10-06T04:06:04.618Z,10.07
2023-10-06T04:11:10.135Z,10.04
2023-10-06T04:16:16.163Z,10.02
2023-10-06T04:21:25.544Z,9.99
2023-10-06T04:26:31.830Z,10.01
2023-10-06T04:31:38.272Z,10.05
2023-10-06T04:36:44.351Z,10.10
2023-10-06T04:41:49.942Z,10.12
2023-10-06T04:46:55.562Z,10.16
2023-10-06T04:52:01.883Z,10.22
2023-10-06T04:57:09.780Z,10.26
2023-10-06T05:02:15.624Z,10.29
2023-10-06T05:07:21.317Z,10.31
2023-10-06T05:12:26.943Z,10.31
2023-10-06T05:17:33.488Z,10.32
2023-10-06T05:22:39.118Z,10.28
2023-10-06T05:27:45.922Z,10.26
2023-10-06T05:32:51.676Z,10.23
2023-10-06T05:37:58.879Z,10.20
2023-10-06T05:43:05.930Z,10.18
2023-10-06T05:48:12.015Z,10.20
2023-10-06T05:53:21.301Z,10.22
2023-10-06T05:58:26.981Z,10.26
2023-10-06T06:03:32.689Z,10.29
2023-10-06T06:08:40.689Z,10.33
2023-10-06T06:13:50.717Z,10.33
2023-10-06T06:19:07.433Z,10.36
2023-10-06T06:24:13.518Z,10.42
2023-10-06T06:29:51.136Z,10.50
2023-10-06T06:34:57.339Z,10.61
2023-10-06T06:40:03.154Z,10.71
2023-10-06T06:45:09.589Z,10.76
2023-10-06T06:50:17.040Z,10.78
2023-10-06T06:55:23.068Z,10.83
2023-10-06T07:00:28.604Z,10.91
2023-10-06T07:05:35.788Z,11.01
2023-10-06T07:10:48.314Z,11.10
2023-10-06T07:15:54.904Z,11.23
2023-10-06T07:21:00.588Z,11.36
2023-10-06T07:26:10.199Z,11.48
2023-10-06T07:31:18.234Z,11.62
2023-10-06T07:36:24.376Z,11.75
2023-10-06T07:41:29.966Z,11.77
2023-10-06T07:46:36.034Z,11.76
2023-10-06T07:51:41.549Z,11.79
2023-10-06T07:56:48.833Z,11.85
2023-10-06T08:01:54.555Z,11.94
2023-10-06T08:07:02.016Z,12.06
2023-10-06T08:12:09.669Z,12.24
2023-10-06T08:17:15.526Z,12.40
2023-10-06T08:22:23.560Z,12.64
2023-10-06T08:27:31.134Z,12.79
2023-10-06T08:32:38.437Z,12.78
2023-10-06T08:37:45.151Z,12.74
2023-10-06T08:42:52.806Z,12.65
2023-10-06T08:48:02.245Z,12.54
2023-10-06T08:53:11.624Z,12.50
2023-10-06T08:58:19.075Z,12.50
2023-10-06T09:03:28.224Z,12.50
2023-10-06T09:08:41.041Z,12.56
2023-10-06T09:13:47.187Z,12.60
2023-10-06T09:19:03.062Z,12.69
2023-10-06T09:24:20.931Z,12.86
2023-10-06T09:29:34.252Z,12.97
2023-10-06T09:34:40.849Z,12.98
2023-10-06T09:39:47.675Z,12.97
2023-10-06T09:44:57.706Z,13.00
2023-10-06T09:50:04.270Z,13.05
2023-10-06T09:55:11.832Z,13.08
2023-10-06T10:00:19.305Z,13.13
2023-10-06T10:05:25.650Z,13.31
2023-10-06T10:10:31.484Z,13.54
2023-10-06T10:15:43.254Z,13.83
2023-10-06T10:20:49.407Z,13.98
2023-10-06T10:25:55.559Z,13.99
2023-10-06T10:31:02.329Z,13.98
2023-10-06T10:36:24.883Z,13.95
2023-10-06T10:41:32.438Z,13.94
2023-10-06T10:46:43.864Z,13.98
2023-10-06T10:51:59.464Z,14.11
2023-10-06T10:57:11.137Z,14.26
2023-10-06T11:02:21.106Z,14.39
2023-10-06T11:07:26.746Z,14.41
2023-10-06T11:12:32.768Z,14.40
2023-10-06T11:17:38.565Z,14.36
2023-10-06T11:22:53.616Z,14.35
2023-10-06T11:28:04.981Z,14.40
2023-10-06T11:33:13.428Z,14.42
2023-10-06T11:38:19.465Z,14.48
2023-10-06T11:43:42.000Z,14.60
2023-10-06T11:48:47.533Z,14.65
2023-10-06T11:54:01.369Z,14.62
2023-10-06T11:59:20.476Z,14.61
2023-10-06T12:04:31.786Z,14.62
2023-10-06T12:09:39.911Z,14.64
2023-10-06T12:14:46.043Z,14.70
2023-10-06T12:19:52.268Z,14.76
2023-10-06T12:24:57.928Z,14.88
2023-10-06T12:30:04.790Z,14.99
2023-10-06T12:35:11.387Z,15.07
2023-10-06T12:40:17.658Z,15.16
2023-10-06T12:45:24.520Z,15.28
2023-10-06T12:50:31.073Z,15.39
2023-10-06T12:55:37.272Z,15.48
2023-10-06T13:00:43.601Z,15.53
2023-10-06T13:05:49.353Z,15.51
2023-10-06T13:10:55.176Z,15.47
2023-10-06T13:16:00.878Z,15.45
2023-10-06T13:21:09.843Z,15.41
2023-10-06T13:26:27.458Z,15.38
2023-10-06T13:31:42.374Z,15.37
2023-10-06T13:36:48.633Z,15.34
2023-10-06T13:42:07.008Z,15.30
2023-10-06T13:47:12.879Z,15.24
2023-10-06T13:52:18.462Z,15.21
2023-10-06T13:57:24.857Z,15.20
2023-10-06T14:02:31.116Z,15.22
2023-10-06T14:07:38.875Z,15.21
2023-10-06T14:12:50.783Z,15.21
2023-10-06T14:17:58.086Z,15.20
2023-10-06T14:23:04.142Z,15.14
2023-10-06T14:28:10.931Z,15.06
2023-10-06T14:33:25.532Z,15.02
2023-10-06T14:38:49.953Z,15.03
2023-10-06T14:44:13.709Z,15.07
2023-10-06T14:49:24.856Z,15.10
2023-10-06T14:54:33.118Z,15.11
2023-10-06T14:59:38.826Z,15.14
2023-10-06T15:04:44.594Z,15.18
2023-10-06T15:09:53.936Z,15.20
2023-10-06T15:15:01.667Z,15.18
2023-10-06T15:20:08.860Z,15.18
2023-10-06T15:25:15.025Z,15.20
2023-10-06T15:30:20.745Z,15.23
2023-10-06T15:35:26.537Z,15.27
2023-10-06T15:40:35.049Z,15.30
2023-10-06T15:45:40.832Z,15.31
2023-10-06T15:50:47.203Z,15.31
2023-10-06T15:55:53.036Z,15.28
2023-10-06T16:00:59.820Z,15.27
2023-10-06T16:06:06.311Z,15.29
2023-10-06T16:11:12.746Z,15.31
2023-10-06T16:16:20.992Z,15.35
2023-10-06T16:21:28.247Z,15.37
2023-10-06T16:26:34.025Z,15.35
2023-10-06T16:31:39.678Z,15.33
2023-10-06T16:36:45.223Z,15.31
2023-10-06T16:41:51.057Z,15.28
2023-10-06T16:46:56.919Z,15.24
2023-10-06T16:52:02.472Z,15.18
2023-10-06T16:57:08.507Z,15.10
2023-10-06T17:02:14.602Z,15.02
2023-10-06T17:07:20.340Z,14.90
2023-10-06T17:12:26.060Z,14.75
2023-10-06T17:17:31.699Z,14.66
2023-10-06T17:22:38.347Z,14.60
2023-10-06T17:27:46.693Z,14.56
2023-10-06T17:32:54.461Z,14.52
2023-10-06T17:38:00.423Z,14.52
2023-10-06T17:43:09.036Z,14.49
2023-10-06T17:48:15.505Z,14.44
2023-10-06T17:53:21.409Z,14.33
2023-10-06T17:58:30.208Z,14.21
2023-10-06T18:03:36.064Z,14.11
2023-10-06T18:08:42.248Z,14.04
2023-10-06T18:13:48.037Z,14.02
2023-10-06T18:18:53.847Z,13.99
2023-10-06T18:24:00.822Z,13.96
2023-10-06T18:29:06.729Z,13.92
2023-10-06T18:34:13.524Z,13.83
2023-10-06T18:39:22.567Z,13.70
2023-10-06T18:44:28.699Z,13.55
2023-10-06T18:49:34.473Z,13.43
2023-10-06T18:54:41.077Z,13.33
2023-10-06T18:59:46.769Z,13.25
2023-10-06T19:04:52.987Z,13.18
2023-10-06T19:09:58.671Z,13.13
2023-10-06T19:15:09.474Z,13.10
2023-10-06T19:20:15.387Z,13.07
2023-10-06T19:25:25.335Z,13.04
2023-10-06T19:30:33.503Z,13.03
2023-10-06T19:35:40.325Z,13.01
2023-10-06T19:46:17.340Z,12.99
2023-10-06T19:51:24.272Z,13.01
2023-10-06T19:56:31.116Z,13.01
2023-10-06T20:01:39.001Z,12.98
2023-10-06T20:13:11.605Z,12.89
2023-10-06T20:18:17.748Z,12.90
2023-10-06T20:23:34.588Z,12.90
2023-10-06T20:28:41.948Z,12.91
2023-10-06T20:33:48.453Z,12.92
2023-10-06T20:38:54.362Z,12.92
2023-10-06T20:44:01.254Z,12.93
2023-10-06T20:49:07.023Z,12.93
2023-10-06T20:54:12.565Z,12.92
2023-10-06T20:59:18.313Z,12.93
2023-10-06T21:04:23.903Z,12.92
2023-10-06T21:09:29.466Z,12.89
2023-10-06T21:14:35.103Z,12.86
2023-10-06T21:19:40.720Z,12.84
2023-10-06T21:24:46.329Z,12.86
2023-10-06T21:29:51.960Z,12.89
2023-10-06T21:34:57.461Z,12.91
2023-10-06T21:40:03.323Z,12.95
2023-10-06T21:45:09.802Z,12.99
2023-10-06T21:50:16.365Z,13.03
2023-10-06T21:55:21.982Z,13.05
2023-10-06T22:00:29.171Z,13.06
2023-10-06T22:05:34.725Z,13.06
2023-10-06T22:10:40.265Z,13.07
2023-10-06T22:15:45.717Z,13.07
2023-10-06T22:20:51.501Z,13.08
2023-10-06T22:26:01.518Z,13.10
2023-10-06T22:31:07.360Z,13.13
2023-10-06T22:36:16.389Z,13.17
2023-10-06T22:41:22.111Z,13.21
2023-10-06T22:46:30.854Z,13.25
2023-10-06T22:51:36.628Z,13.30
2023-10-06T22:56:42.157Z,13.37
2023-10-06T23:01:48.060Z,13.43
2023-10-06T23:06:55.043Z,13.49
2023-10-06T23:12:02.603Z,13.53
2023-10-06T23:17:08.218Z,13.57
2023-10-06T23:22:14.546Z,13.64
2023-10-06T23:27:21.991Z,13.71
2023-10-06T23:32:30.329Z,13.79
2023-10-06T23:37:38.362Z,13.87
2023-10-06T23:42:44.358Z,13.95
2023-10-06T23:47:53.042Z,14.01
2023-10-06T23:53:01.752Z,14.07
2023-10-06T23:58:07.688Z,14.12
